sensor_id;sensor_type;location;lat;lon;timestamp;pressure;altitude;pressure_sealevel;temperature;humidity
5872;BME280;2962;51.312;7.378;2023-11-22T00:01:26;98311.66;;;2.99;100.00
5872;BME280;2962;51.312;7.378;2023-11-22T00:03:52;98317.03;;;2.99;100.00
5872;BME280;2962;51.312;7.378;2023-11-22T00:06:17;98312.44;;;2.99;100.00
5872;BME280;2962;51.312;7.378;2023-11-22T00:08:46;98306.25;;;2.99;100.00
5872;BME280;2962;51.312;7.378;2023-11-22T00:11:12;98311.16;;;2.97;100.00
5872;BME280;2962;51.312;7.378;2023-11-22T00:13:39;98307.06;;;2.99;100.00
5872;BME280;2962;51.312;7.378;2023-11-22T00:16:05;98312.16;;;3.01;100.00
5872;BME280;2962;51.312;7.378;2023-11-22T00:18:33;98306.06;;;2.95;100.00
5872;BME280;2962;51.312;7.378;2023-11-22T00:20:59;98303.09;;;2.97;100.00
5872;BME280;2962;51.312;7.378;2023-11-22T00:23:24;98310.06;;;2.98;100.00
5872;BME280;2962;51.312;7.378;2023-11-22T00:25:54;98310.16;;;2.92;100.00
5872;BME280;2962;51.312;7.378;2023-11-22T00:28:19;98318.72;;;2.94;100.00
5872;BME280;2962;51.312;7.378;2023-11-22T00:30:44;98319.91;;;2.88;100.00
5872;BME280;2962;51.312;7.378;2023-11-22T00:33:10;98324.19;;;2.89;100.00
5872;BME280;2962;51.312;7.378;2023-11-22T00:35:35;98328.66;;;2.80;100.00
5872;BME280;2962;51.312;7.378;2023-11-22T00:38:01;98334.34;;;2.79;100.00
5872;BME280;2962;51.312;7.378;2023-11-22T00:40:26;98339.13;;;2.82;100.00
5872;BME280;2962;51.312;7.378;2023-11-22T00:42:52;98335.25;;;2.88;100.00
5872;BME280;2962;51.312;7.378;2023-11-22T00:45:17;98323.91;;;2.91;100.00
5872;BME280;2962;51.312;7.378;2023-11-22T00:47:43;98330.75;;;2.83;100.00
5872;BME280;2962;51.312;7.378;2023-11-22T00:50:08;98333.97;;;2.85;100.00
5872;BME280;2962;51.312;7.378;2023-11-22T00:52:34;98333.97;;;2.85;100.00
5872;BME280;2962;51.312;7.378;2023-11-22T00:55:00;98333.06;;;2.90;100.00
5872;BME280;2962;51.312;7.378;2023-11-22T00:57:25;98337.34;;;2.91;100.00
5872;BME280;2962;51.312;7.378;2023-11-22T00:59:52;98331.97;;;2.77;100.00
5872;BME280;2962;51.312;7.378;2023-11-22T01:02:18;98334.72;;;2.72;100.00
5872;BME280;2962;51.312;7.378;2023-11-22T01:04:44;98335.03;;;2.84;100.00
5872;BME280;2962;51.312;7.378;2023-11-22T01:07:09;98332.34;;;2.84;100.00
5872;BME280;2962;51.312;7.378;2023-11-22T01:09:35;98324.94;;;2.76;100.00
5872;BME280;2962;51.312;7.378;2023-11-22T01:12:00;98333.25;;;2.80;100.00
5872;BME280;2962;51.312;7.378;2023-11-22T01:14:26;98335.81;;;2.71;100.00
5872;BME280;2962;51.312;7.378;2023-11-22T01:16:52;98352.53;;;2.68;100.00
5872;BME280;2962;51.312;7.378;2023-11-22T01:19:19;98360.03;;;2.71;100.00
5872;BME280;2962;51.312;7.378;2023-11-22T01:21:44;98352.66;;;2.77;100.00
5872;BME280;2962;51.312;7.378;2023-11-22T01:24:10;98359.03;;;2.67;100.00
5872;BME280;2962;51.312;7.378;2023-11-22T01:26:36;98351.53;;;2.64;100.00
5872;BME280;2962;51.312;7.378;2023-11-22T01:29:02;98335.91;;;2.66;100.00
5872;BME280;2962;51.312;7.378;2023-11-22T01:31:28;98359.22;;;2.71;100.00
5872;BME280;2962;51.312;7.378;2023-11-22T01:33:54;98353.94;;;2.65;100.00
5872;BME280;2962;51.312;7.378;2023-11-22T01:36:19;98363.59;;;2.66;100.00
5872;BME280;2962;51.312;7.378;2023-11-22T01:38:45;98358.44;;;2.70;100.00
5872;BME280;2962;51.312;7.378;2023-11-22T01:41:11;98358.56;;;2.79;100.00
5872;BME280;2962;51.312;7.378;2023-11-22T01:43:38;98360.13;;;2.66;100.00
5872;BME280;2962;51.312;7.378;2023-11-22T01:46:05;98365.41;;;2.71;100.00
5872;BME280;2962;51.312;7.378;2023-11-22T01:48:31;98375.66;;;2.69;100.00
5872;BME280;2962;51.312;7.378;2023-11-22T01:50:57;98367.41;;;2.65;100.00
5872;BME280;2962;51.312;7.378;2023-11-22T01:53:22;98390.72;;;2.70;100.00
5872;BME280;2962;51.312;7.378;2023-11-22T01:55:49;98388.94;;;2.65;100.00
5872;BME280;2962;51.312;7.378;2023-11-22T01:58:14;98382.13;;;2.68;100.00
5872;BME280;2962;51.312;7.378;2023-11-22T02:00:45;98385.94;;;2.67;100.00
5872;BME280;2962;51.312;7.378;2023-11-22T02:03:13;98380.34;;;2.63;100.00
5872;BME280;2962;51.312;7.378;2023-11-22T02:05:40;98383.25;;;2.67;100.00
5872;BME280;2962;51.312;7.378;2023-11-22T02:08:07;98383.44;;;2.71;100.00
5872;BME280;2962;51.312;7.378;2023-11-22T02:10:33;98383.53;;;2.65;100.00
5872;BME280;2962;51.312;7.378;2023-11-22T02:12:58;98398.50;;;2.72;100.00
5872;BME280;2962;51.312;7.378;2023-11-22T02:15:23;98393.91;;;2.72;100.00
5872;BME280;2962;51.312;7.378;2023-11-22T02:17:49;98396.69;;;2.67;100.00
5872;BME280;2962;51.312;7.378;2023-11-22T02:20:15;98404.88;;;2.76;100.00
5872;BME280;2962;51.312;7.378;2023-11-22T02:22:47;98393.91;;;2.72;100.00
5872;BME280;2962;51.312;7.378;2023-11-22T02:25:12;98409.44;;;2.61;100.00
5872;BME280;2962;51.312;7.378;2023-11-22T02:27:38;98400.97;;;2.68;100.00
5872;BME280;2962;51.312;7.378;2023-11-22T02:30:03;98410.72;;;2.64;100.00
5872;BME280;2962;51.312;7.378;2023-11-22T02:32:31;98403.84;;;2.58;100.00
5872;BME280;2962;51.312;7.378;2023-11-22T02:34:56;98404.13;;;2.37;100.00
5872;BME280;2962;51.312;7.378;2023-11-22T02:37:21;98409.44;;;2.42;100.00
5872;BME280;2962;51.312;7.378;2023-11-22T02:40:16;98416.69;;;2.42;100.00
5872;BME280;2962;51.312;7.378;2023-11-22T02:42:43;98413.16;;;2.47;100.00
5872;BME280;2962;51.312;7.378;2023-11-22T02:45:08;98413.81;;;2.38;100.00
5872;BME280;2962;51.312;7.378;2023-11-22T02:47:34;98413.72;;;2.43;100.00
5872;BME280;2962;51.312;7.378;2023-11-22T02:50:00;98406.66;;;2.48;100.00
5872;BME280;2962;51.312;7.378;2023-11-22T02:52:25;98403.69;;;2.30;100.00
5872;BME280;2962;51.312;7.378;2023-11-22T02:54:51;98410.91;;;2.35;100.00
5872;BME280;2962;51.312;7.378;2023-11-22T02:57:17;98414.06;;;2.37;100.00
5872;BME280;2962;51.312;7.378;2023-11-22T02:59:43;98413.84;;;2.33;100.00
5872;BME280;2962;51.312;7.378;2023-11-22T03:02:08;98414.88;;;2.37;100.00
5872;BME280;2962;51.312;7.378;2023-11-22T03:04:33;98406.38;;;2.30;100.00
5872;BME280;2962;51.312;7.378;2023-11-22T03:06:59;98403.03;;;2.19;100.00
5872;BME280;2962;51.312;7.378;2023-11-22T03:09:25;98410.81;;;2.21;100.00
5872;BME280;2962;51.312;7.378;2023-11-22T03:11:51;98410.81;;;2.21;100.00
5872;BME280;2962;51.312;7.378;2023-11-22T03:14:16;98411.59;;;2.22;100.00
5872;BME280;2962;51.312;7.378;2023-11-22T03:16:42;98416.19;;;2.21;100.00
5872;BME280;2962;51.312;7.378;2023-11-22T03:19:07;98422.69;;;2.15;100.00
5872;BME280;2962;51.312;7.378;2023-11-22T03:21:33;98440.38;;;2.21;100.00
5872;BME280;2962;51.312;7.378;2023-11-22T03:24:01;98434.34;;;2.29;100.00
5872;BME280;2962;51.312;7.378;2023-11-22T03:26:29;98439.28;;;2.22;100.00
5872;BME280;2962;51.312;7.378;2023-11-22T03:28:54;98442.97;;;2.07;100.00
5872;BME280;2962;51.312;7.378;2023-11-22T03:31:19;98448.75;;;1.95;100.00
5872;BME280;2962;51.312;7.378;2023-11-22T03:33:44;98448.31;;;1.88;100.00
5872;BME280;2962;51.312;7.378;2023-11-22T03:36:10;98443.28;;;1.82;100.00
5872;BME280;2962;51.312;7.378;2023-11-22T03:38:36;98456.19;;;1.56;100.00
5872;BME280;2962;51.312;7.378;2023-11-22T03:41:01;98456.81;;;1.48;100.00
5872;BME280;2962;51.312;7.378;2023-11-22T03:43:27;98457.38;;;1.44;100.00
5872;BME280;2962;51.312;7.378;2023-11-22T03:45:52;98464.22;;;1.32;100.00
5872;BME280;2962;51.312;7.378;2023-11-22T03:48:17;98460.06;;;1.15;100.00
5872;BME280;2962;51.312;7.378;2023-11-22T03:50:43;98459.59;;;1.03;100.00
5872;BME280;2962;51.312;7.378;2023-11-22T03:53:08;98466.91;;;0.97;100.00
5872;BME280;2962;51.312;7.378;2023-11-22T03:55:34;98463.75;;;0.90;100.00
5872;BME280;2962;51.312;7.378;2023-11-22T03:57:59;98469.59;;;0.97;100.00
5872;BME280;2962;51.312;7.378;2023-11-22T04:00:25;98466.13;;;0.97;100.00
5872;BME280;2962;51.312;7.378;2023-11-22T04:02:50;98476.31;;;0.95;100.00
5872;BME280;2962;51.312;7.378;2023-11-22T04:05:15;98476.06;;;0.96;100.00
5872;BME280;2962;51.312;7.378;2023-11-22T04:07:41;98483.50;;;1.00;100.00
5872;BME280;2962;51.312;7.378;2023-11-22T04:10:06;98506.31;;;1.02;100.00
5872;BME280;2962;51.312;7.378;2023-11-22T04:12:32;98509.53;;;1.04;100.00
5872;BME280;2962;51.312;7.378;2023-11-22T04:14:57;98530.22;;;0.98;100.00
5872;BME280;2962;51.312;7.378;2023-11-22T04:17:23;98522.31;;;0.78;100.00
5872;BME280;2962;51.312;7.378;2023-11-22T04:19:48;98534.72;;;0.64;100.00
5872;BME280;2962;51.312;7.378;2023-11-22T04:22:13;98535.34;;;0.51;100.00
5872;BME280;2962;51.312;7.378;2023-11-22T04:24:39;98533.78;;;0.39;100.00
5872;BME280;2962;51.312;7.378;2023-11-22T04:27:04;98539.72;;;0.31;100.00
5872;BME280;2962;51.312;7.378;2023-11-22T04:29:30;98546.69;;;0.27;100.00
5872;BME280;2962;51.312;7.378;2023-11-22T04:31:55;98534.91;;;0.28;100.00
5872;BME280;2962;51.312;7.378;2023-11-22T04:34:20;98531.69;;;0.21;100.00
5872;BME280;2962;51.312;7.378;2023-11-22T04:36:46;98541.38;;;0.07;100.00
5872;BME280;2962;51.312;7.378;2023-11-22T04:39:14;98532.59;;;-0.09;100.00
5872;BME280;2962;51.312;7.378;2023-11-22T04:41:39;98520.53;;;-0.12;100.00
5872;BME280;2962;51.312;7.378;2023-11-22T04:44:04;98531.00;;;-0.10;100.00
5872;BME280;2962;51.312;7.378;2023-11-22T04:46:30;98521.38;;;-0.11;100.00
5872;BME280;2962;51.312;7.378;2023-11-22T04:48:56;98531.25;;;-0.12;100.00
5872;BME280;2962;51.312;7.378;2023-11-22T04:51:22;98529.41;;;-0.16;100.00
5872;BME280;2962;51.312;7.378;2023-11-22T04:53:49;98524.59;;;-0.25;100.00
5872;BME280;2962;51.312;7.378;2023-11-22T04:56:14;98524.34;;;-0.23;100.00
5872;BME280;2962;51.312;7.378;2023-11-22T04:58:39;98516.56;;;-0.35;100.00
5872;BME280;2962;51.312;7.378;2023-11-22T05:01:05;98516.84;;;-0.31;100.00
5872;BME280;2962;51.312;7.378;2023-11-22T05:03:30;98505.63;;;-0.38;100.00
5872;BME280;2962;51.312;7.378;2023-11-22T05:05:55;98505.38;;;-0.42;100.00
5872;BME280;2962;51.312;7.378;2023-11-22T05:08:21;98490.09;;;-0.52;100.00
5872;BME280;2962;51.312;7.378;2023-11-22T05:10:46;98511.50;;;-0.46;100.00
5872;BME280;2962;51.312;7.378;2023-11-22T05:13:11;98519.03;;;-0.48;100.00
5872;BME280;2962;51.312;7.378;2023-11-22T05:15:37;98523.84;;;-0.45;100.00
5872;BME280;2962;51.312;7.378;2023-11-22T05:18:02;98535.06;;;-0.43;100.00
5872;BME280;2962;51.312;7.378;2023-11-22T05:20:27;98538.00;;;-0.40;100.00
5872;BME280;2962;51.312;7.378;2023-11-22T05:22:53;98539.34;;;-0.42;100.00
5872;BME280;2962;51.312;7.378;2023-11-22T05:25:18;98548.47;;;-0.54;100.00
5872;BME280;2962;51.312;7.378;2023-11-22T05:27:43;98549.53;;;-0.55;100.00
5872;BME280;2962;51.312;7.378;2023-11-22T05:30:09;98564.00;;;-0.45;100.00
5872;BME280;2962;51.312;7.378;2023-11-22T05:32:35;98565.59;;;-0.50;100.00
5872;BME280;2962;51.312;7.378;2023-11-22T05:35:01;98554.34;;;-0.57;100.00
5872;BME280;2962;51.312;7.378;2023-11-22T05:37:26;98585.94;;;-0.54;100.00
5872;BME280;2962;51.312;7.378;2023-11-22T05:39:51;98581.66;;;-0.55;100.00
5872;BME280;2962;51.312;7.378;2023-11-22T05:42:16;98593.19;;;-0.49;100.00
5872;BME280;2962;51.312;7.378;2023-11-22T05:44:43;98586.75;;;-0.48;100.00
5872;BME280;2962;51.312;7.378;2023-11-22T05:47:08;98575.78;;;-0.57;100.00
5872;BME280;2962;51.312;7.378;2023-11-22T05:49:36;98589.44;;;-0.53;100.00
5872;BME280;2962;51.312;7.378;2023-11-22T05:52:02;98590.47;;;-0.54;100.00
5872;BME280;2962;51.312;7.378;2023-11-22T05:54:27;98580.06;;;-0.56;100.00
5872;BME280;2962;51.312;7.378;2023-11-22T05:56:52;98585.38;;;-0.51;100.00
5872;BME280;2962;51.312;7.378;2023-11-22T05:59:18;98574.72;;;-0.61;100.00
5872;BME280;2962;51.312;7.378;2023-11-22T06:01:43;98588.59;;;-0.59;100.00
5872;BME280;2962;51.312;7.378;2023-11-22T06:04:08;98589.94;;;-0.66;100.00
5872;BME280;2962;51.312;7.378;2023-11-22T06:06:35;98584.88;;;-0.73;100.00
5872;BME280;2962;51.312;7.378;2023-11-22T06:09:00;98563.47;;;-0.73;100.00
5872;BME280;2962;51.312;7.378;2023-11-22T06:11:25;98576.56;;;-0.77;100.00
5872;BME280;2962;51.312;7.378;2023-11-22T06:13:51;98581.09;;;-0.82;100.00
5872;BME280;2962;51.312;7.378;2023-11-22T06:16:16;98581.09;;;-0.77;100.00
5872;BME280;2962;51.312;7.378;2023-11-22T06:18:42;98554.59;;;-0.89;100.00
5872;BME280;2962;51.312;7.378;2023-11-22T06:21:09;98585.38;;;-0.81;100.00
5872;BME280;2962;51.312;7.378;2023-11-22T06:23:34;98581.91;;;-0.92;100.00
5872;BME280;2962;51.312;7.378;2023-11-22T06:26:00;98577.59;;;-0.93;100.00
5872;BME280;2962;51.312;7.378;2023-11-22T06:28:25;98587.22;;;-0.97;100.00
5872;BME280;2962;51.312;7.378;2023-11-22T06:30:50;98569.31;;;-1.02;100.00
5872;BME280;2962;51.312;7.378;2023-11-22T06:33:16;98590.72;;;-0.91;100.00
5872;BME280;2962;51.312;7.378;2023-11-22T06:35:41;98595.53;;;-0.93;100.00
5872;BME280;2962;51.312;7.378;2023-11-22T06:38:08;98591.81;;;-0.87;100.00
5872;BME280;2962;51.312;7.378;2023-11-22T06:40:33;98598.25;;;-0.58;100.00
5872;BME280;2962;51.312;7.378;2023-11-22T06:42:58;98583.13;;;0.23;100.00
5872;BME280;2962;51.312;7.378;2023-11-22T06:45:24;98591.63;;;0.56;100.00
5872;BME280;2962;51.312;7.378;2023-11-22T06:47:49;98593.22;;;0.57;100.00
5872;BME280;2962;51.312;7.378;2023-11-22T06:50:15;98597.34;;;0.29;100.00
5872;BME280;2962;51.312;7.378;2023-11-22T06:52:41;98597.13;;;-0.01;100.00
5872;BME280;2962;51.312;7.378;2023-11-22T06:55:08;98605.19;;;-0.31;100.00
5872;BME280;2962;51.312;7.378;2023-11-22T06:57:34;98593.16;;;-0.54;100.00
5872;BME280;2962;51.312;7.378;2023-11-22T07:00:00;98587.53;;;-0.68;100.00
5872;BME280;2962;51.312;7.378;2023-11-22T07:02:30;98596.09;;;-0.71;100.00
5872;BME280;2962;51.312;7.378;2023-11-22T07:04:55;98587.25;;;-0.87;100.00
5872;BME280;2962;51.312;7.378;2023-11-22T07:07:20;98589.66;;;-0.85;100.00
5872;BME280;2962;51.312;7.378;2023-11-22T07:09:46;98591.56;;;-0.76;100.00
5872;BME280;2962;51.312;7.378;2023-11-22T07:12:11;98598.50;;;-0.69;100.00
5872;BME280;2962;51.312;7.378;2023-11-22T07:14:37;98598.25;;;-0.73;100.00
5872;BME280;2962;51.312;7.378;2023-11-22T07:17:03;98594.50;;;-0.72;100.00
5872;BME280;2962;51.312;7.378;2023-11-22T07:19:28;98603.59;;;-0.58;100.00
5872;BME280;2962;51.312;7.378;2023-11-22T07:21:54;98610.84;;;-0.53;100.00
5872;BME280;2962;51.312;7.378;2023-11-22T07:24:19;98615.38;;;-0.43;100.00
5872;BME280;2962;51.312;7.378;2023-11-22T07:26:45;98619.13;;;-0.39;100.00
5872;BME280;2962;51.312;7.378;2023-11-22T07:29:10;98618.88;;;-0.33;100.00
5872;BME280;2962;51.312;7.378;2023-11-22T07:31:37;98623.66;;;-0.19;100.00
5872;BME280;2962;51.312;7.378;2023-11-22T07:34:03;98635.97;;;0.02;100.00
5872;BME280;2962;51.312;7.378;2023-11-22T07:36:28;98646.16;;;0.05;100.00
5872;BME280;2962;51.312;7.378;2023-11-22T07:38:54;98657.13;;;0.14;100.00
5872;BME280;2962;51.312;7.378;2023-11-22T07:41:19;98662.47;;;0.19;100.00
5872;BME280;2962;51.312;7.378;2023-11-22T07:43:44;98671.56;;;0.33;100.00
5872;BME280;2962;51.312;7.378;2023-11-22T07:46:10;98679.59;;;0.48;100.00
5872;BME280;2962;51.312;7.378;2023-11-22T07:48:38;98670.16;;;0.66;100.00
5872;BME280;2962;51.312;7.378;2023-11-22T07:51:03;98676.28;;;0.72;100.00
5872;BME280;2962;51.312;7.378;2023-11-22T07:53:30;98683.50;;;0.77;100.00
5872;BME280;2962;51.312;7.378;2023-11-22T07:55:59;98679.47;;;0.89;100.00
5872;BME280;2962;51.312;7.378;2023-11-22T07:58:24;98671.09;;;0.96;100.00
5872;BME280;2962;51.312;7.378;2023-11-22T08:00:50;98671.81;;;1.17;100.00
5872;BME280;2962;51.312;7.378;2023-11-22T08:03:15;98665.53;;;1.37;100.00
5872;BME280;2962;51.312;7.378;2023-11-22T08:05:43;98669.56;;;1.39;100.00
5872;BME280;2962;51.312;7.378;2023-11-22T08:08:13;98640.00;;;1.39;100.00
5872;BME280;2962;51.312;7.378;2023-11-22T08:10:38;98644.47;;;2.17;100.00
5872;BME280;2962;51.312;7.378;2023-11-22T08:13:03;98621.31;;;2.93;100.00
5872;BME280;2962;51.312;7.378;2023-11-22T08:15:29;98616.84;;;3.59;100.00
5872;BME280;2962;51.312;7.378;2023-11-22T08:17:57;98614.84;;;3.13;100.00
5872;BME280;2962;51.312;7.378;2023-11-22T08:20:22;98605.41;;;2.92;100.00
5872;BME280;2962;51.312;7.378;2023-11-22T08:22:47;98610.97;;;3.01;100.00
5872;BME280;2962;51.312;7.378;2023-11-22T08:25:16;98612.41;;;2.74;100.00
5872;BME280;2962;51.312;7.378;2023-11-22T08:27:42;98610.16;;;2.81;100.00
5872;BME280;2962;51.312;7.378;2023-11-22T08:30:08;98612.34;;;2.98;100.00
5872;BME280;2962;51.312;7.378;2023-11-22T08:32:45;98615.31;;;2.78;100.00
5872;BME280;2962;51.312;7.378;2023-11-22T08:35:13;98616.41;;;2.53;100.00
5872;BME280;2962;51.312;7.378;2023-11-22T08:37:41;98624.75;;;2.75;100.00
5872;BME280;2962;51.312;7.378;2023-11-22T08:40:09;98642.25;;;2.97;100.00
5872;BME280;2962;51.312;7.378;2023-11-22T08:42:39;98647.34;;;2.98;100.00
5872;BME280;2962;51.312;7.378;2023-11-22T08:45:06;98661.94;;;2.92;100.00
5872;BME280;2962;51.312;7.378;2023-11-22T08:47:33;98671.22;;;3.05;100.00
5872;BME280;2962;51.312;7.378;2023-11-22T08:49:58;98675.03;;;3.04;100.00
5872;BME280;2962;51.312;7.378;2023-11-22T08:52:24;98681.63;;;2.92;100.00
5872;BME280;2962;51.312;7.378;2023-11-22T08:54:50;98700.22;;;3.13;100.00
5872;BME280;2962;51.312;7.378;2023-11-22T08:57:17;98704.31;;;3.29;100.00
5872;BME280;2962;51.312;7.378;2023-11-22T08:59:42;98720.00;;;3.22;100.00
5872;BME280;2962;51.312;7.378;2023-11-22T09:02:08;98711.16;;;3.40;100.00
5872;BME280;2962;51.312;7.378;2023-11-22T09:04:33;98702.19;;;3.26;100.00
5872;BME280;2962;51.312;7.378;2023-11-22T09:06:59;98703.72;;;3.32;100.00
5872;BME280;2962;51.312;7.378;2023-11-22T09:09:25;98720.38;;;3.34;100.00
5872;BME280;2962;51.312;7.378;2023-11-22T09:11:56;98710.94;;;3.56;100.00
5872;BME280;2962;51.312;7.378;2023-11-22T09:14:22;98698.13;;;3.48;100.00
5872;BME280;2962;51.312;7.378;2023-11-22T09:16:49;98713.06;;;3.59;100.00
5872;BME280;2962;51.312;7.378;2023-11-22T09:19:19;98709.50;;;3.63;100.00
5872;BME280;2962;51.312;7.378;2023-11-22T09:21:45;98693.47;;;3.72;100.00
5872;BME280;2962;51.312;7.378;2023-11-22T09:24:11;98681.13;;;4.04;100.00
5872;BME280;2962;51.312;7.378;2023-11-22T09:26:37;98682.25;;;4.16;100.00
5872;BME280;2962;51.312;7.378;2023-11-22T09:29:03;98690.00;;;4.04;100.00
5872;BME280;2962;51.312;7.378;2023-11-22T09:31:29;98701.16;;;4.30;100.00
5872;BME280;2962;51.312;7.378;2023-11-22T09:33:55;98692.56;;;4.28;100.00
5872;BME280;2962;51.312;7.378;2023-11-22T09:36:22;98691.19;;;3.98;100.00
5872;BME280;2962;51.312;7.378;2023-11-22T09:38:51;98683.25;;;3.88;100.00
5872;BME280;2962;51.312;7.378;2023-11-22T09:41:17;98684.66;;;3.66;100.00
5872;BME280;2962;51.312;7.378;2023-11-22T09:43:42;98681.53;;;3.59;100.00
5872;BME280;2962;51.312;7.378;2023-11-22T09:46:09;98672.06;;;3.62;100.00
5872;BME280;2962;51.312;7.378;2023-11-22T09:48:36;98669.81;;;3.69;100.00
5872;BME280;2962;51.312;7.378;2023-11-22T09:51:04;98669.88;;;3.64;100.00
5872;BME280;2962;51.312;7.378;2023-11-22T09:56:09;98673.56;;;3.68;100.00
5872;BME280;2962;51.312;7.378;2023-11-22T09:58:35;98671.09;;;3.53;100.00
5872;BME280;2962;51.312;7.378;2023-11-22T10:01:03;98675.66;;;3.90;100.00
5872;BME280;2962;51.312;7.378;2023-11-22T10:03:32;98667.94;;;3.83;100.00
5872;BME280;2962;51.312;7.378;2023-11-22T10:05:59;98671.47;;;3.65;100.00
5872;BME280;2962;51.312;7.378;2023-11-22T10:08:27;98682.41;;;3.55;100.00
5872;BME280;2962;51.312;7.378;2023-11-22T10:10:55;98676.88;;;3.46;100.00
5872;BME280;2962;51.312;7.378;2023-11-22T10:13:21;98671.84;;;3.58;100.00
5872;BME280;2962;51.312;7.378;2023-11-22T10:15:48;98673.38;;;3.46;100.00
5872;BME280;2962;51.312;7.378;2023-11-22T10:18:13;98667.53;;;3.76;100.00
5872;BME280;2962;51.312;7.378;2023-11-22T10:20:43;98668.34;;;3.77;100.00
5872;BME280;2962;51.312;7.378;2023-11-22T10:23:13;98662.63;;;3.97;100.00
5872;BME280;2962;51.312;7.378;2023-11-22T10:25:48;98673.16;;;4.26;100.00
5872;BME280;2962;51.312;7.378;2023-11-22T10:28:26;98675.13;;;4.07;100.00
5872;BME280;2962;51.312;7.378;2023-11-22T10:30:52;98683.59;;;4.00;100.00
5872;BME280;2962;51.312;7.378;2023-11-22T10:33:18;98678.09;;;3.73;100.00
5872;BME280;2962;51.312;7.378;2023-11-22T10:35:50;98674.00;;;3.75;100.00
5872;BME280;2962;51.312;7.378;2023-11-22T10:38:17;98676.31;;;4.01;100.00
5872;BME280;2962;51.312;7.378;2023-11-22T10:40:43;98678.91;;;4.06;100.00
5872;BME280;2962;51.312;7.378;2023-11-22T10:43:11;98682.75;;;4.19;100.00
5872;BME280;2962;51.312;7.378;2023-11-22T10:45:37;98679.91;;;3.96;100.00
5872;BME280;2962;51.312;7.378;2023-11-22T10:48:03;98681.38;;;3.70;100.00
5872;BME280;2962;51.312;7.378;2023-11-22T10:50:28;98676.03;;;3.83;100.00
5872;BME280;2962;51.312;7.378;2023-11-22T10:52:56;98675.34;;;3.59;100.00
5872;BME280;2962;51.312;7.378;2023-11-22T10:55:26;98687.63;;;3.65;100.00
5872;BME280;2962;51.312;7.378;2023-11-22T10:57:55;98679.84;;;4.15;100.00
5872;BME280;2962;51.312;7.378;2023-11-22T11:00:22;98663.47;;;4.25;100.00
5872;BME280;2962;51.312;7.378;2023-11-22T11:02:54;98677.75;;;4.12;100.00
5872;BME280;2962;51.312;7.378;2023-11-22T11:05:27;98674.03;;;4.54;100.00
5872;BME280;2962;51.312;7.378;2023-11-22T11:08:06;98678.84;;;4.57;100.00
5872;BME280;2962;51.312;7.378;2023-11-22T11:10:39;98677.25;;;4.98;100.00
5872;BME280;2962;51.312;7.378;2023-11-22T11:13:06;98674.25;;;4.85;100.00
5872;BME280;2962;51.312;7.378;2023-11-22T11:15:32;98673.13;;;5.14;100.00
5872;BME280;2962;51.312;7.378;2023-11-22T11:17:57;98683.94;;;4.73;100.00
5872;BME280;2962;51.312;7.378;2023-11-22T11:20:23;98679.56;;;4.30;100.00
5872;BME280;2962;51.312;7.378;2023-11-22T11:22:49;98683.47;;;4.24;100.00
5872;BME280;2962;51.312;7.378;2023-11-22T11:25:16;98683.53;;;4.65;100.00
5872;BME280;2962;51.312;7.378;2023-11-22T11:27:45;98675.44;;;4.93;100.00
5872;BME280;2962;51.312;7.378;2023-11-22T11:32:57;98665.69;;;6.15;100.00
5872;BME280;2962;51.312;7.378;2023-11-22T11:35:51;98667.28;;;6.69;100.00
5872;BME280;2962;51.312;7.378;2023-11-22T11:38:19;98657.13;;;6.83;100.00
5872;BME280;2962;51.312;7.378;2023-11-22T11:40:47;98659.78;;;7.32;100.00
5872;BME280;2962;51.312;7.378;2023-11-22T11:43:13;98659.66;;;7.54;100.00
5872;BME280;2962;51.312;7.378;2023-11-22T11:45:44;98656.44;;;7.52;94.79
5872;BME280;2962;51.312;7.378;2023-11-22T11:48:13;98652.94;;;7.95;93.89
5872;BME280;2962;51.312;7.378;2023-11-22T11:50:39;98661.50;;;8.15;81.21
5872;BME280;2962;51.312;7.378;2023-11-22T11:53:09;98679.91;;;8.09;72.27
5872;BME280;2962;51.312;7.378;2023-11-22T11:55:36;98671.06;;;8.47;74.30
5872;BME280;2962;51.312;7.378;2023-11-22T11:58:05;98655.28;;;8.40;81.68
5872;BME280;2962;51.312;7.378;2023-11-22T12:00:36;98659.13;;;8.39;79.78
5872;BME280;2962;51.312;7.378;2023-11-22T12:03:08;98654.41;;;7.58;81.18
5872;BME280;2962;51.312;7.378;2023-11-22T12:05:36;98650.06;;;8.00;71.52
5872;BME280;2962;51.312;7.378;2023-11-22T12:08:01;98639.19;;;7.92;79.92
5872;BME280;2962;51.312;7.378;2023-11-22T12:10:27;98632.25;;;6.73;100.00
5872;BME280;2962;51.312;7.378;2023-11-22T12:12:53;98616.53;;;6.92;99.61
5872;BME280;2962;51.312;7.378;2023-11-22T12:15:18;98612.25;;;6.60;93.38
5872;BME280;2962;51.312;7.378;2023-11-22T12:17:44;98596.16;;;6.55;96.16
5872;BME280;2962;51.312;7.378;2023-11-22T12:20:14;98592.19;;;6.61;100.00
5872;BME280;2962;51.312;7.378;2023-11-22T12:22:41;98571.94;;;7.16;100.00
5872;BME280;2962;51.312;7.378;2023-11-22T12:25:07;98563.78;;;8.23;87.18
5872;BME280;2962;51.312;7.378;2023-11-22T12:27:32;98555.38;;;9.05;86.63
5872;BME280;2962;51.312;7.378;2023-11-22T12:29:57;98542.31;;;8.98;76.72
5872;BME280;2962;51.312;7.378;2023-11-22T12:32:26;98530.69;;;9.52;73.10
5872;BME280;2962;51.312;7.378;2023-11-22T12:34:51;98528.50;;;9.78;69.07
5872;BME280;2962;51.312;7.378;2023-11-22T12:37:21;98532.38;;;9.90;75.81
5872;BME280;2962;51.312;7.378;2023-11-22T12:39:48;98535.19;;;9.48;72.41
5872;BME280;2962;51.312;7.378;2023-11-22T12:42:13;98508.16;;;10.21;73.45
5872;BME280;2962;51.312;7.378;2023-11-22T12:44:51;98526.50;;;10.00;68.00
5872;BME280;2962;51.312;7.378;2023-11-22T12:47:33;98519.81;;;9.97;69.38
5872;BME280;2962;51.312;7.378;2023-11-22T12:50:02;98520.91;;;10.54;66.05
5872;BME280;2962;51.312;7.378;2023-11-22T12:52:29;98522.34;;;11.29;60.27
5872;BME280;2962;51.312;7.378;2023-11-22T12:54:57;98519.59;;;12.64;58.43
5872;BME280;2962;51.312;7.378;2023-11-22T12:57:23;98525.94;;;13.58;53.63
5872;BME280;2962;51.312;7.378;2023-11-22T12:59:48;98528.94;;;13.33;53.54
5872;BME280;2962;51.312;7.378;2023-11-22T13:02:13;98517.00;;;14.26;48.23
5872;BME280;2962;51.312;7.378;2023-11-22T13:04:40;98509.75;;;13.49;51.49
5872;BME280;2962;51.312;7.378;2023-11-22T13:07:05;98501.88;;;13.28;49.91
5872;BME280;2962;51.312;7.378;2023-11-22T13:09:31;98509.88;;;12.15;49.92
5872;BME280;2962;51.312;7.378;2023-11-22T13:11:57;98493.16;;;12.87;50.27
5872;BME280;2962;51.312;7.378;2023-11-22T13:14:23;98502.56;;;12.70;50.35
5872;BME280;2962;51.312;7.378;2023-11-22T13:16:50;98497.28;;;13.75;50.25
5872;BME280;2962;51.312;7.378;2023-11-22T13:19:16;98503.66;;;13.20;48.18
5872;BME280;2962;51.312;7.378;2023-11-22T13:21:41;98512.25;;;14.00;46.77